Weather observations for the past three days for
Denton Enterprise Airport
Metric (Imperial)
Date Time (cdt) Wind (kph) Vis. (km) Weather Sky Cond. Temperature (ºC) Relative Humidity Wind Chill (°C) Heat Index (°C) Pressure Precipitation (cm)
Air Dwpt 6 hour altimeter (cm) sea level (mb) 1 hr 3 hr 6 hr
Max. Min.
04 15:53 SE 37 G 57 16.09 Fair and Breezy CLR 27.8 17.2 53% 28 75.57 1006.7
04 14:53 SE 33 G 46 16.09 Fair and Breezy CLR 27.2 16.1 51% 28 75.67 1007.9
04 13:53 S 31 G 46 16.09 Fair CLR 26.7 16.1 52% 27 75.74 1009.0
04 12:53 S 26 G 52 16.09 Fair CLR 25.6 15.6 25.6 16.1 54% 26 75.82 1009.9
04 11:53 S 33 G 50 16.09 Fair and Breezy CLR 23.9 14.4 55% 25 75.9 1011.1
04 10:53 S 26 G 44 16.09 Fair CLR 22.8 14.4 59% 75.92 1011.6
04 09:53 S 35 G 50 16.09 Fair and Breezy CLR 21.7 13.9 61% 75.97 1012.1
04 08:53 S 28 G 44 16.09 Fair CLR 19.4 13.3 68% 75.97 1012.2
04 07:53 S 19 16.09 A Few Clouds FEW120 17.2 12.2 73% 75.97 1012.1
04 06:53 S 20 16.09 Fair CLR 16.1 11.7 18.3 15.6 75% 75.95 1011.7
04 05:53 S 17 16.09 Fair CLR 16.7 11.1 70% 75.95 1011.7
04 04:53 S 17 16.09 Fair CLR 16.1 10.6 70% 75.97 1012.1
04 03:53 S 15 16.09 Fair CLR 16.7 10 65% 76 1012.4
04 02:53 S 15 16.09 Fair CLR 16.1 10 67% 76.02 1012.8
04 01:53 S 15 16.09 Fair CLR 17.2 10 63% 76.07 1013.5
04 00:53 S 17 16.09 Fair CLR 17.2 9.4 25 14.4 60% 76.12 1014.1
03 23:53 S 15 16.09 Fair CLR 17.2 10 63% 76.17 1014.9
03 22:53 S 11 16.09 Fair CLR 15.6 9.4 67% 76.2 1015.1
03 21:53 S 15 16.09 Fair CLR 19.4 8.3 49% 76.17 1014.8
03 20:53 S 19 16.09 Fair CLR 21.1 8.3 44% 76.15 1014.7
03 19:53 S 15 16.09 Fair CLR 22.8 8.3 40% 76.12 1014.2
03 18:53 S 17 16.09 Fair CLR 25 8.3 27.8 25 35% 26 76.15 1014.6
03 17:53 SW 20 G 33 16.09 Fair CLR 26.1 8.3 32% 26 76.17 1014.9
03 16:53 SW 19 G 41 16.09 Fair CLR 27.2 7.2 28% 26 76.2 1015.4
03 15:53 S 28 16.09 Fair CLR 27.2 8.3 30% 27 76.3 1016.5
03 14:53 W 20 G 35 16.09 Fair CLR 26.7 8.3 31% 26 76.35 1017.4
03 13:53 SW 24 G 35 16.09 Fair CLR 26.7 10 35% 26 76.43 1018.3
03 12:53 SW 22 16.09 Fair CLR 26.1 11.1 26.1 8.9 39% 26 76.5 1019.5
03 11:53 SW 17 G 33 16.09 Fair CLR 25 11.1 42% 26 76.56 1020.2
03 10:53 SW 22 16.09 Fair CLR 23.9 11.1 45% 25 76.58 1020.6
03 09:53 SW 17 16.09 Fair CLR 21.1 11.1 53% 76.58 1020.5
03 08:53 SW 13 16.09 Fair CLR 17.2 11.1 68% 76.58 1020.6
03 07:53 S 6 16.09 Fair CLR 13.9 11.1 83% 76.58 1020.3
03 06:53 SW 6 16.09 Fair CLR 8.9 7.2 13.3 8.3 89% 76.53 1019.9
03 05:53 Calm 16.09 Fair CLR 9.4 7.8 90% 76.5 1019.4
03 04:53 S 7 16.09 Fair CLR 11.7 8.9 83% 76.5 1019.3
03 03:53 Calm 16.09 Fair CLR 10 8.3 89% 76.48 1019.3
03 02:53 S 6 16.09 Fair CLR 11.7 8.9 83% 76.48 1019.2
03 01:53 Calm 16.09 Fair CLR 10.6 8.9 89% 76.53 1019.7
03 00:53 Calm 16.09 Fair CLR 12.2 10 23.3 11.1 87% 76.5 1019.3
02 23:53 Calm 16.09 Fair CLR 11.7 10 89% 76.48 1019.2
02 22:53 S 6 16.09 Fair CLR 13.9 10.6 81% 76.48 1019.2
02 21:53 Calm 16.09 Fair CLR 16.7 10.6 67% 76.45 1018.7
02 20:53 SW 6 16.09 Fair CLR 17.8 11.1 65% 76.43 1018.4
02 19:53 SW 6 16.09 Fair CLR 21.1 11.1 53% 76.4 1018.1
02 18:53 W 9 16.09 Fair CLR 23.3 9.4 25 21.7 41% 76.4 1018.0
02 17:53 W 15 16.09 Fair CLR 23.9 9.4 40% 25 76.4 1018.3
02 16:53 W 17 16.09 Partly Cloudy SCT075 23.9 8.3 37% 25 76.43 1018.6
02 15:53 Calm 16.09 Mostly Cloudy BKN070 BKN090 23.9 7.8 36% 25 76.5 1019.4
02 14:53 Vrbl 7 16.09 A Few Clouds FEW070 24.4 8.3 36% 25 76.53 1019.9
02 13:53 Vrbl 6 16.09 Fair CLR 23.3 7.2 36% 76.58 1020.6
02 12:53 N 9 16.09 Fair CLR 22.8 7.2 22.8 7.2 37% 76.66 1021.5
02 11:53 SW 9 16.09 Fair CLR 21.7 5 34% 76.71 1022.1
02 10:53 Vrbl 6 16.09 Fair CLR 20.6 6.1 39% 76.68 1021.9
02 09:53 Calm 16.09 Fair CLR 18.9 6.7 45% 76.68 1021.8
02 08:53 Calm 16.09 Fair CLR 15 10.6 75% 76.66 1021.6
02 07:53 Calm 16.09 Fair CLR 10.6 9.4 92% 76.63 1021.2
02 06:53 N 6 16.09 Fair CLR 7.2 6.7 12.8 6.7 97% 76.56 1020.3
02 05:53 N 6 16.09 Fair CLR 6.7 6.1 96% 76.5 1019.6
02 04:53 NW 6 14.48 Fair CLR 8.9 8.3 96% 76.45 1019.0
02 03:53 NW 9 16.09 Fair CLR 8.9 8.3 96% 8 76.45 1018.9
02 02:53 Calm 16.09 Fair CLR 11.1 8.9 86% 76.45 1019.0
02 01:53 Calm 16.09 Fair CLR 10.6 9.4 92% 76.48 1019.3
02 00:53 Calm 16.09 Fair CLR 10 8.9 17.8 10 93% 76.48 1019.2
01 23:53 S 9 16.09 Fair CLR 11.1 10 93% 76.45 1018.9
01 22:53 Calm 16.09 Mostly Cloudy BKN065 15 11.1 78% 76.43 1018.6
01 21:53 Calm 16.09 Overcast OVC070 15 11.7 81% 76.4 1018.4
01 20:53 Calm 16.09 A Few Clouds FEW120 15.6 11.1 75% 76.35 1017.5
01 19:53 Calm 16.09 Mostly Cloudy BKN110 16.7 10 65% 76.25 1016.2
01 18:53 NE 6 16.09 Fair CLR 17.8 8.3 18.9 17.8 54% 76.2 1015.4
01 17:53 Calm 16.09 Mostly Cloudy BKN110 18.3 8.9 54% 76.17 1015.1
01 16:53 NE 9 16.09 Fair CLR 18.3 8.9 54% 76.15 1014.9
Date Time (cdt) Wind (kph) Vis. (km) Weather Sky Cond. Air Dwpt Max. Min. Relative Humidity Wind Chill (°C) Heat Index (°C) altimeter (cm) sea level (mb) 1 hr 3 hr 6 hr
6 hour
Temperature (ºC) Pressure Precipitation (cm)